Talbott, Tennessee
Current Conditions -  °F | °C
As of 6:15 PM on Thursday 27 Nov 2014 (Local Time) from KMOR Reporting Station
Broken Clouds Broken Clouds  
Wind Chill: 26°   Ceiling: 2800
Heat Index: 34°   Visibility: 10mi
Dew Point: 27°   Wind: 10mph
Humidity: 75%   Direction: 320°NW
Pressure: 30.33"   Gusts: NA
Location:  36.15°N, 83.41°W
Report Text: KMOR 272315Z AUTO 32009KT 10SM BKN028 BKN035 01/M03 A3033 RMK
Loading
Personal Weather Stations






























Interactive Weather Map New forecast layout! Learn more

10-Day Weather Forecast

Advertisements
Track Severe Weather on mobile